KBIE

Beatrice Municipal Airport

Beatrice, Nebraska, USA
METAR KBIE 240435Z AUTO 10004KT 10SM CLR 09/M01 A3030 RMK AO2 T00871006
Observed Flight Rules
Oct-24 @ 04:35 UTC (44 minutes ago) Visual Flight Rules
Wind Visibility Clouds
100° at 4 knots 10 miles
  • Clear skies
Temperatures Readings
Current 9°C / 48°F
Dewpoint -1°C / 30°F
Humidity 50%
Altimeter 30.3" Hg
Pressure 1026 hPa
Elevation 403
METAR KBIE 240435Z AUTO 10004KT 10SM CLR 09/M01 A3030 RMK AO2 T00871006
Observed Flight Rules
Oct-24 @ 04:35 UTC
(44 minutes ago)
VFR
Wind Visibility
100° at 4 knots 10 miles
Clouds
  • Clear skies
Temperature Dewpoint
9°C / 48°F -1°C / 30°F
Humidity Altimeter Pressure
50% 30.3" Hg 1026 hPa